Time;durP1;ratioP1;P1;durP2;ratioP2;P2;SDS_P1;SDS_P2;PMS_P1;PMS_P2;Temp;Humidity;BMP_temperature;BMP_pressure;BME280_temperature;BME280_humidity;BME280_pressure;Samples;Min_cycle;Max_cycle;Signal;HPM_P1;HPM_P2
2023/01/10 00:01:31;;;;;;;20.05;3.25;;;4.10;99.90;;;;;;4993235;28;20019;-46
2023/01/10 00:03:57;;;;;;;13.15;2.63;;;4.00;99.90;;;;;;4993124;28;20412;-46
2023/01/10 00:06:23;;;;;;;22.67;3.92;;;4.00;99.90;;;;;;4993354;28;20023;-46
2023/01/10 00:08:48;;;;;;;21.85;3.97;;;3.90;99.90;;;;;;4993611;28;20030;-51
2023/01/10 00:13:58;;;;;;;14.43;2.70;;;3.90;99.90;;;;;;4992986;28;20146;-48
2023/01/10 00:16:24;;;;;;;12.90;2.90;;;3.80;99.90;;;;;;4987838;28;20117;-46
2023/01/10 00:18:50;;;;;;;25.42;5.38;;;3.70;99.90;;;;;;4986343;28;20147;-49
2023/01/10 00:21:16;;;;;;;19.23;3.55;;;3.60;99.90;;;;;;4993355;28;20097;-46
2023/01/10 00:23:42;;;;;;;20.88;3.20;;;3.60;99.90;;;;;;4993380;28;20026;-45
2023/01/10 00:26:08;;;;;;;26.38;4.10;;;3.50;99.90;;;;;;4992784;28;20082;-53
2023/01/10 00:28:34;;;;;;;15.45;3.40;;;3.50;99.90;;;;;;4992984;28;20054;-49
2023/01/10 00:31:05;;;;;;;20.98;3.50;;;3.50;99.90;;;;;;4993120;28;20018;-45
2023/01/10 00:33:31;;;;;;;20.02;3.50;;;3.50;99.90;;;;;;4993062;28;20030;-50
2023/01/10 00:36:01;;;;;;;23.98;4.00;;;3.50;99.90;;;;;;4992924;28;20029;-47
2023/01/10 00:38:27;;;;;;;;;;;3.50;99.90;;;;;;4993349;28;20093;-50
2023/01/10 00:40:52;;;;;;;21.45;3.65;;;3.50;99.90;;;;;;4992338;28;20282;-49
2023/01/10 00:46:02;;;;;;;14.38;3.42;;;3.50;99.90;;;;;;4993057;28;20049;-46
2023/01/10 00:48:28;;;;;;;22.35;3.35;;;3.40;99.90;;;;;;4975589;28;20026;-52
2023/01/10 00:50:54;;;;;;;15.40;2.85;;;3.40;99.90;;;;;;4992862;28;20027;-51
2023/01/10 00:53:20;;;;;;;10.75;2.58;;;3.40;99.90;;;;;;4992869;28;20528;-47
2023/01/10 00:55:46;;;;;;;15.77;3.28;;;3.40;99.90;;;;;;4992619;28;20022;-52
2023/01/10 00:58:15;;;;;;;22.38;2.88;;;3.40;99.90;;;;;;4992728;28;20065;-48
2023/01/10 01:00:45;;;;;;;17.02;2.78;;;3.50;99.90;;;;;;4992605;28;20035;-47
2023/01/10 01:03:11;;;;;;;20.45;2.78;;;3.40;99.90;;;;;;4992529;28;20018;-49
2023/01/10 01:05:44;;;;;;;13.70;2.60;;;3.50;99.90;;;;;;4992621;28;20038;-50
2023/01/10 01:08:12;;;;;;;14.13;2.83;;;3.50;99.90;;;;;;4992485;28;20041;-49
2023/01/10 01:10:38;;;;;;;13.32;3.10;;;3.60;99.90;;;;;;4992112;28;20131;-54
2023/01/10 01:13:08;;;;;;;11.93;2.38;;;3.60;99.90;;;;;;4992183;28;20113;-51
2023/01/10 01:15:35;;;;;;;13.02;2.67;;;3.50;99.90;;;;;;4991753;28;20026;-45
2023/01/10 01:18:01;;;;;;;14.38;2.38;;;3.50;99.90;;;;;;4992327;28;20118;-51
2023/01/10 01:20:28;;;;;;;13.88;2.38;;;3.50;99.90;;;;;;4992249;28;20034;-51
2023/01/10 01:22:54;;;;;;;13.10;2.38;;;3.60;99.90;;;;;;4992461;28;20043;-46
2023/01/10 01:25:20;;;;;;;11.95;2.45;;;3.50;99.90;;;;;;4991974;28;20406;-47
2023/01/10 01:27:45;;;;;;;14.88;2.55;;;3.50;99.90;;;;;;4992071;28;20500;-46
2023/01/10 01:30:12;;;;;;;14.60;2.88;;;3.40;99.90;;;;;;4992465;28;20383;-45
2023/01/10 01:32:38;;;;;;;13.88;2.38;;;3.30;99.90;;;;;;4992164;28;20034;-48
2023/01/10 01:35:05;;;;;;;13.88;3.03;;;3.30;99.90;;;;;;4992466;28;20026;-49
2023/01/10 01:37:31;;;;;;;15.55;2.55;;;3.20;99.90;;;;;;4992075;28;20026;-45
2023/01/10 01:39:56;;;;;;;20.38;3.38;;;3.20;99.90;;;;;;4974409;28;20089;-54
2023/01/10 01:42:32;;;;;;;19.90;2.78;;;3.40;99.90;;;;;;4974575;28;20022;-48
2023/01/10 01:45:07;;;;;;;33.22;3.03;;;3.60;99.90;;;;;;4991867;28;20477;-45
2023/01/10 01:47:40;;;;;;;14.95;2.17;;;3.90;99.90;;;;;;4991921;28;20018;-45
2023/01/10 01:50:18;;;;;;;16.80;2.92;;;4.00;99.90;;;;;;4991898;28;20076;-46
2023/01/10 01:52:45;;;;;;;17.33;2.67;;;4.00;99.90;;;;;;4991222;28;20030;-46
2023/01/10 01:55:11;;;;;;;13.88;2.35;;;4.00;99.90;;;;;;4991678;28;20085;-48
2023/01/10 01:57:37;;;;;;;16.85;2.55;;;3.90;99.90;;;;;;4991713;28;20034;-53
2023/01/10 02:00:05;;;;;;;18.23;3.05;;;3.90;99.90;;;;;;4991964;28;20019;-51
2023/01/10 02:02:35;;;;;;;19.55;2.40;;;3.80;99.90;;;;;;4991556;28;20406;-46
2023/01/10 02:05:08;;;;;;;19.75;2.38;;;3.90;99.90;;;;;;4991650;28;20548;-46
2023/01/10 02:07:37;;;;;;;14.48;2.47;;;3.90;99.90;;;;;;4991549;28;20025;-48
2023/01/10 02:10:11;;;;;;;12.15;3.00;;;3.90;99.90;;;;;;4990884;28;20057;-46
2023/01/10 02:12:38;;;;;;;16.90;2.78;;;3.90;99.90;;;;;;4991645;28;20050;-49
2023/01/10 02:15:04;;;;;;;15.50;2.63;;;3.90;99.90;;;;;;4991440;28;20062;-47
2023/01/10 02:17:30;;;;;;;20.88;2.60;;;3.80;99.90;;;;;;4991431;28;20038;-50
2023/01/10 02:20:06;;;;;;;11.38;2.40;;;3.80;99.90;;;;;;4991399;28;20029;-51
2023/01/10 02:22:38;;;;;;;11.75;2.00;;;3.70;99.90;;;;;;4978417;28;20498;-47
2023/01/10 02:25:43;;;;;;;9.50;2.20;;;3.50;99.90;;;;;;4991372;28;20042;-50
2023/01/10 02:28:56;;;;;;;14.00;2.28;;;3.40;99.90;;;;;;4961252;28;20030;-51
2023/01/10 02:31:53;;;;;;;8.80;1.65;;;3.30;99.90;;;;;;4929097;28;20040;-48
2023/01/10 02:34:34;;;;;;;15.25;2.78;;;3.20;99.90;;;;;;4985524;28;20042;-47
2023/01/10 02:37:20;;;;;;;12.13;2.15;;;3.20;99.90;;;;;;4991396;28;20140;-49
2023/01/10 02:40:03;;;;;;;8.27;1.70;;;3.10;99.90;;;;;;4985061;28;20023;-50
2023/01/10 02:42:47;;;;;;;16.42;2.17;;;3.10;99.90;;;;;;4991091;28;20106;-49
2023/01/10 02:45:20;;;;;;;12.18;1.98;;;3.20;99.90;;;;;;4991075;28;20083;-52
2023/01/10 02:47:45;;;;;;;12.50;2.00;;;3.10;99.90;;;;;;4990831;28;20436;-45
2023/01/10 02:50:42;;;;;;;13.65;2.17;;;3.10;99.90;;;;;;4991203;28;20026;-48
2023/01/10 02:53:19;;;;;;;10.48;2.08;;;3.20;99.90;;;;;;4990976;28;20121;-49
2023/01/10 02:55:59;;;;;;;19.48;3.15;;;3.20;99.90;;;;;;4991260;28;20109;-49
2023/01/10 02:58:52;;;;;;;14.93;2.40;;;3.20;99.90;;;;;;4991149;28;20505;-45
2023/01/10 03:01:48;;;;;;;17.27;2.88;;;3.20;99.90;;;;;;4990881;28;20038;-47
2023/01/10 03:04:23;;;;;;;11.32;2.00;;;3.30;99.90;;;;;;4991209;28;20638;-47
2023/01/10 03:07:17;;;;;;;11.27;2.20;;;3.40;99.90;;;;;;4994699;28;20019;-46
2023/01/10 03:10:14;;;;;;;14.65;2.00;;;3.40;99.90;;;;;;4994096;28;20034;-54
2023/01/10 03:12:55;;;;;;;13.52;2.70;;;3.40;99.90;;;;;;4944910;28;20043;-46
2023/01/10 03:15:26;;;;;;;14.00;2.08;;;3.40;99.90;;;;;;4994022;28;20083;-50
2023/01/10 03:17:57;;;;;;;10.00;2.10;;;3.50;99.90;;;;;;4994598;28;20030;-46
2023/01/10 03:20:23;;;;;;;17.70;3.20;;;3.50;99.90;;;;;;4994618;28;20031;-51
2023/01/10 03:22:51;;;;;;;13.35;2.58;;;3.50;99.90;;;;;;4994897;28;20060;-50
2023/01/10 03:25:22;;;;;;;13.23;2.20;;;3.50;99.90;;;;;;4994402;28;20046;-47
2023/01/10 03:28:04;;;;;;;12.23;2.35;;;3.50;99.90;;;;;;4994411;28;20014;-52
2023/01/10 03:30:34;;;;;;;18.00;2.67;;;3.50;99.90;;;;;;4994184;28;20038;-48
2023/01/10 03:33:01;;;;;;;13.65;1.90;;;3.60;99.90;;;;;;4994529;28;20473;-46
2023/01/10 03:35:42;;;;;;;13.82;2.55;;;3.60;99.90;;;;;;4976713;28;20037;-49
2023/01/10 03:38:31;;;;;;;12.63;2.17;;;3.60;99.90;;;;;;4994488;28;20015;-51
2023/01/10 03:41:20;;;;;;;18.20;3.00;;;3.70;99.90;;;;;;4993609;28;20026;-45
2023/01/10 03:47:28;;;;;;;19.27;2.58;;;3.70;99.90;;;;;;4987367;28;20040;-52
2023/01/10 03:49:58;;;;;;;14.45;2.67;;;3.70;99.90;;;;;;4984552;28;20486;-50
2023/01/10 03:52:25;;;;;;;9.88;1.58;;;3.70;99.90;;;;;;4994197;28;20104;-52
2023/01/10 03:54:52;;;;;;;13.10;2.05;;;3.80;99.90;;;;;;4993965;28;20026;-49
2023/01/10 03:57:21;;;;;;;19.52;3.03;;;3.80;99.90;;;;;;4993700;28;20080;-47
2023/01/10 03:59:53;;;;;;;17.50;2.63;;;3.90;99.90;;;;;;4993659;28;20053;-47
2023/01/10 04:02:19;;;;;;;20.13;3.58;;;4.00;99.90;;;;;;4975815;28;20466;-44
2023/01/10 04:04:44;;;;;;;11.05;2.50;;;4.00;99.90;;;;;;4976310;28;20038;-47
2023/01/10 04:07:10;;;;;;;13.82;2.10;;;4.10;99.90;;;;;;4993588;28;20089;-44
2023/01/10 04:09:35;;;;;;;9.57;2.40;;;4.10;99.90;;;;;;4993442;28;20023;-51
2023/01/10 04:12:01;;;;;;;10.48;2.38;;;4.00;99.90;;;;;;4993690;28;20477;-48
2023/01/10 04:14:28;;;;;;;8.45;2.20;;;3.90;99.90;;;;;;4976041;28;20029;-49
2023/01/10 04:16:54;;;;;;;16.05;2.35;;;3.80;99.90;;;;;;4993427;28;20046;-47
2023/01/10 04:19:19;;;;;;;13.60;2.20;;;3.80;99.90;;;;;;4993761;28;20038;-49
2023/01/10 04:21:45;;;;;;;9.30;1.75;;;3.70;99.90;;;;;;4993492;28;20022;-51
2023/01/10 04:24:11;;;;;;;10.95;2.40;;;3.70;99.90;;;;;;4993487;28;20065;-46
2023/01/10 04:26:36;;;;;;;15.10;3.28;;;3.70;99.90;;;;;;4993182;28;20393;-48
2023/01/10 04:29:02;;;;;;;10.35;3.00;;;3.70;99.90;;;;;;4993250;28;20042;-47
2023/01/10 04:31:28;;;;;;;13.57;2.55;;;3.60;99.90;;;;;;4993013;28;20042;-46
2023/01/10 04:33:53;;;;;;;13.27;2.78;;;3.60;99.90;;;;;;4993153;28;20026;-48
2023/01/10 04:36:19;;;;;;;13.13;2.15;;;3.60;99.90;;;;;;4993283;28;20105;-47
2023/01/10 04:38:44;;;;;;;10.30;2.53;;;3.50;99.90;;;;;;4992949;28;20019;-50
2023/01/10 04:41:10;;;;;;;12.73;2.25;;;3.40;99.90;;;;;;4992636;28;20504;-46
2023/01/10 04:43:36;;;;;;;12.48;2.55;;;3.40;99.90;;;;;;4992829;28;20045;-50
2023/01/10 04:46:01;;;;;;;9.20;2.05;;;3.30;99.90;;;;;;4992974;28;20050;-46
2023/01/10 04:48:27;;;;;;;8.70;1.63;;;3.20;99.90;;;;;;4993079;28;20037;-49
2023/01/10 04:50:53;;;;;;;8.68;2.28;;;3.20;99.90;;;;;;4992824;28;20022;-50
2023/01/10 04:53:19;;;;;;;14.45;2.33;;;3.10;99.90;;;;;;4992946;28;20496;-48
2023/01/10 04:55:46;;;;;;;20.65;2.47;;;3.20;99.90;;;;;;4992718;28;20037;-44
2023/01/10 04:58:11;;;;;;;13.18;2.30;;;3.20;99.90;;;;;;4992713;28;20025;-50
2023/01/10 05:00:37;;;;;;;9.45;2.25;;;3.20;99.90;;;;;;4992674;28;20026;-50
2023/01/10 05:03:03;;;;;;;12.25;2.50;;;3.20;99.90;;;;;;4992754;28;20018;-52
2023/01/10 05:05:30;;;;;;;13.32;3.03;;;3.20;99.90;;;;;;4992648;28;20069;-51
2023/01/10 05:07:56;;;;;;;12.55;2.85;;;3.20;99.90;;;;;;4992343;28;20064;-45
2023/01/10 05:10:22;;;;;;;13.20;2.63;;;3.20;99.90;;;;;;4992233;28;20030;-46
2023/01/10 05:12:47;;;;;;;10.90;2.70;;;3.20;99.90;;;;;;4992512;28;20022;-51
2023/01/10 05:15:13;;;;;;;10.90;2.78;;;3.30;99.90;;;;;;4992866;28;20600;-46
2023/01/10 05:17:39;;;;;;;9.07;2.55;;;3.30;99.90;;;;;;4992588;28;20031;-46
2023/01/10 05:20:05;;;;;;;13.82;2.70;;;3.30;99.90;;;;;;4992444;28;20037;-47
2023/01/10 05:22:30;;;;;;;12.10;2.72;;;3.40;99.90;;;;;;4992589;28;20033;-46
2023/01/10 05:24:56;;;;;;;15.68;2.97;;;3.50;99.90;;;;;;4992249;28;20105;-46
2023/01/10 05:27:22;;;;;;;11.80;2.95;;;3.60;99.90;;;;;;4991641;28;20069;-47
2023/01/10 05:29:47;;;;;;;14.35;2.90;;;3.60;99.90;;;;;;4992216;28;20501;-49
2023/01/10 05:32:13;;;;;;;25.42;2.90;;;3.70;99.90;;;;;;4992237;28;20465;-47
2023/01/10 05:34:39;;;;;;;12.63;2.40;;;3.90;99.90;;;;;;4992290;28;20390;-45
2023/01/10 05:37:04;;;;;;;20.48;2.92;;;4.20;99.90;;;;;;4992202;28;20093;-46
2023/01/10 05:42:19;;;;;;;22.63;3.40;;;4.80;99.90;;;;;;4193194;23;20514;-47
2023/01/10 05:44:44;;;;;;;20.13;2.28;;;5.10;99.90;;;;;;4894418;29;20087;-47
2023/01/10 05:47:10;;;;;;;22.20;3.33;;;5.30;99.90;;;;;;4894307;29;20055;-50
2023/01/10 05:49:36;;;;;;;23.05;2.88;;;5.50;99.90;;;;;;4894459;29;20111;-48
2023/01/10 05:52:03;;;;;;;26.25;2.92;;;5.60;99.90;;;;;;4899963;29;20017;-51
2023/01/10 05:54:29;;;;;;;16.40;2.30;;;5.80;99.90;;;;;;4914422;29;20031;-46
2023/01/10 05:56:55;;;;;;;17.80;2.47;;;5.90;99.90;;;;;;4903754;29;20058;-45
2023/01/10 05:59:21;;;;;;;19.50;3.33;;;6.00;99.90;;;;;;4905940;29;20028;-47
2023/01/10 06:01:47;;;;;;;23.75;2.83;;;6.10;99.90;;;;;;4897525;29;20055;-50
2023/01/10 06:04:12;;;;;;;13.27;2.88;;;6.20;99.90;;;;;;4914998;29;20040;-48
2023/01/10 06:06:38;;;;;;;17.48;2.63;;;6.30;99.90;;;;;;4902319;29;20024;-50
2023/01/10 06:09:04;;;;;;;21.08;2.78;;;6.30;99.90;;;;;;4909361;29;20387;-50
2023/01/10 06:11:29;;;;;;;19.10;2.15;;;6.50;99.90;;;;;;4903309;29;20084;-46
2023/01/10 06:13:56;;;;;;;19.23;2.28;;;6.60;99.90;;;;;;4898741;29;20028;-46
2023/01/10 06:16:22;;;;;;;18.63;2.35;;;6.70;99.90;;;;;;4900629;29;20103;-50
2023/01/10 06:18:47;;;;;;;14.75;2.85;;;6.90;99.90;;;;;;4895981;29;20555;-47
2023/01/10 06:21:13;;;;;;;23.75;2.80;;;6.90;99.90;;;;;;4896137;29;20425;-48
2023/01/10 06:23:39;;;;;;;19.83;2.58;;;7.00;99.90;;;;;;4895454;29;20435;-45
2023/01/10 06:26:04;;;;;;;17.27;2.15;;;7.10;99.90;;;;;;4901856;29;20029;-46
2023/01/10 06:28:30;;;;;;;22.88;3.30;;;7.20;99.90;;;;;;4905158;29;20060;-47
2023/01/10 06:30:56;;;;;;;23.25;2.70;;;7.20;99.90;;;;;;4904454;29;20391;-49
2023/01/10 06:33:21;;;;;;;28.45;3.45;;;7.30;99.90;;;;;;4897959;29;20012;-46
2023/01/10 06:35:47;;;;;;;21.92;4.05;;;7.40;99.90;;;;;;4899175;29;20039;-48
2023/01/10 06:38:14;;;;;;;29.15;3.78;;;7.40;99.90;;;;;;4907370;29;20113;-48
2023/01/10 06:40:40;;;;;;;25.08;3.50;;;7.50;99.90;;;;;;4898451;29;20023;-52
2023/01/10 06:43:05;;;;;;;23.98;3.58;;;7.70;99.90;;;;;;4905738;29;20123;-49
2023/01/10 06:45:31;;;;;;;28.42;4.07;;;7.80;99.90;;;;;;4898874;29;20085;-49
2023/01/10 06:47:57;;;;;;;28.20;3.28;;;7.90;99.90;;;;;;4906663;29;20039;-47
2023/01/10 06:50:23;;;;;;;28.90;3.65;;;8.00;99.90;;;;;;4903391;29;20032;-45
2023/01/10 06:52:59;;;;;;;27.67;3.80;;;8.20;99.90;;;;;;4899015;29;20391;-48
2023/01/10 06:55:26;;;;;;;22.05;3.97;;;8.20;99.90;;;;;;4899382;29;20025;-54
2023/01/10 06:57:59;;;;;;;28.77;4.57;;;8.30;99.90;;;;;;4899181;29;20064;-45
2023/01/10 07:00:27;;;;;;;33.25;4.20;;;8.30;99.90;;;;;;4899060;29;20051;-50
2023/01/10 07:02:57;;;;;;;29.90;5.18;;;8.40;99.90;;;;;;4906385;29;20601;-48
2023/01/10 07:05:22;;;;;;;31.02;5.00;;;8.40;99.90;;;;;;4907740;29;20033;-49
2023/01/10 07:07:48;;;;;;;42.00;4.75;;;8.40;99.90;;;;;;4913205;29;20031;-49
2023/01/10 07:10:14;;;;;;;37.17;4.53;;;8.40;99.90;;;;;;4907199;29;20531;-46
2023/01/10 07:12:39;;;;;;;29.02;4.05;;;8.40;99.90;;;;;;4917847;29;20099;-48
2023/01/10 07:15:06;;;;;;;33.17;3.95;;;8.50;99.90;;;;;;4915317;29;20028;-54
2023/01/10 07:17:31;;;;;;;37.78;4.63;;;8.50;99.90;;;;;;4902176;29;20028;-48
2023/01/10 07:19:57;;;;;;;28.85;4.55;;;8.50;99.90;;;;;;4911985;29;20103;-46
2023/01/10 07:22:22;;;;;;;27.00;5.38;;;8.50;99.90;;;;;;4912130;29;20025;-45
2023/01/10 07:24:48;;;;;;;30.63;3.13;;;8.50;99.90;;;;;;4912620;29;20040;-49
2023/01/10 07:27:14;;;;;;;23.83;4.03;;;8.50;99.90;;;;;;4916817;29;20027;-45
2023/01/10 07:29:39;;;;;;;22.25;4.65;;;8.40;99.90;;;;;;4915587;29;20031;-53
2023/01/10 07:32:05;;;;;;;33.72;4.45;;;8.40;99.90;;;;;;4917185;29;20062;-49
2023/01/10 07:34:31;;;;;;;25.45;3.80;;;8.30;99.90;;;;;;4916241;29;20434;-51
2023/01/10 07:36:56;;;;;;;24.10;3.38;;;8.30;99.90;;;;;;4917435;29;20024;-48
2023/01/10 07:39:22;;;;;;;23.33;3.65;;;8.30;99.90;;;;;;4916115;29;20537;-49
2023/01/10 07:41:49;;;;;;;27.40;3.65;;;8.20;99.90;;;;;;4915269;29;20040;-57
2023/01/10 07:44:15;;;;;;;29.25;3.65;;;8.20;99.90;;;;;;4915341;29;20491;-49
2023/01/10 07:46:41;;;;;;;25.75;4.70;;;8.10;99.90;;;;;;4912216;29;20115;-45
2023/01/10 07:49:06;;;;;;;20.30;2.97;;;8.10;99.90;;;;;;4913867;29;20138;-47
2023/01/10 07:51:32;;;;;;;24.20;4.55;;;8.00;99.90;;;;;;4899272;29;20090;-45
2023/01/10 07:53:58;;;;;;;14.63;2.53;;;8.00;99.90;;;;;;4915982;29;20107;-49
2023/01/10 07:56:24;;;;;;;22.83;2.95;;;7.90;99.90;;;;;;4917191;29;20032;-48
2023/01/10 07:58:49;;;;;;;19.95;3.15;;;7.90;99.90;;;;;;4917077;29;20028;-46
2023/01/10 08:01:15;;;;;;;17.52;2.58;;;7.90;99.90;;;;;;4917045;29;20452;-50
2023/01/10 08:03:41;;;;;;;26.27;2.90;;;7.80;99.90;;;;;;4916933;29;20035;-45
2023/01/10 08:06:11;;;;;;;17.83;2.85;;;7.80;99.90;;;;;;4916907;29;20039;-48
2023/01/10 08:08:37;;;;;;;16.48;2.10;;;7.80;99.90;;;;;;4916859;29;20154;-45
2023/01/10 08:11:04;;;;;;;14.88;2.38;;;7.80;99.90;;;;;;4916964;29;20074;-46
2023/01/10 08:13:30;;;;;;;12.50;2.22;;;7.80;99.90;;;;;;4917013;29;20028;-46
2023/01/10 08:15:57;;;;;;;12.20;1.98;;;7.80;99.90;;;;;;4916808;29;20499;-48
2023/01/10 08:18:23;;;;;;;20.65;2.70;;;7.80;99.90;;;;;;4916778;29;20156;-48
2023/01/10 08:20:51;;;;;;;14.32;2.60;;;7.80;99.90;;;;;;4916798;29;20063;-45
2023/01/10 08:23:17;;;;;;;19.35;2.28;;;7.80;99.90;;;;;;4906150;29;20024;-51
2023/01/10 08:25:44;;;;;;;18.48;2.70;;;7.80;99.90;;;;;;4906736;29;20046;-45
2023/01/10 08:28:10;;;;;;;15.25;2.28;;;7.80;99.90;;;;;;4916522;29;20115;-44
2023/01/10 08:30:36;;;;;;;16.98;2.22;;;7.80;99.90;;;;;;4916414;29;20476;-45
2023/01/10 08:33:03;;;;;;;17.08;3.15;;;7.90;99.90;;;;;;4916496;29;20130;-45
2023/01/10 08:35:29;;;;;;;22.77;2.60;;;7.90;99.90;;;;;;4916324;29;20032;-48
2023/01/10 08:37:59;;;;;;;20.00;3.70;;;7.90;99.90;;;;;;4916373;29;20036;-45
2023/01/10 08:40:25;;;;;;;16.55;1.83;;;7.90;99.90;;;;;;4916090;29;20111;-46
2023/01/10 08:43:03;;;;;;;15.80;2.17;;;7.90;99.90;;;;;;4910053;29;20052;-44
2023/01/10 08:45:28;;;;;;;15.15;1.77;;;7.90;99.90;;;;;;4906164;29;20036;-43
2023/01/10 08:47:54;;;;;;;16.77;2.10;;;7.90;99.90;;;;;;4915657;29;20024;-44
2023/01/10 08:50:20;;;;;;;17.85;2.13;;;7.80;99.90;;;;;;4908543;29;20040;-44
2023/01/10 08:52:46;;;;;;;13.32;2.50;;;7.80;99.90;;;;;;4897268;29;20502;-44
2023/01/10 08:55:12;;;;;;;9.15;1.88;;;7.80;99.90;;;;;;4907388;29;20028;-50
2023/01/10 08:57:37;;;;;;;8.30;1.88;;;7.80;99.90;;;;;;4897391;29;20502;-45
2023/01/10 09:00:04;;;;;;;11.40;1.70;;;7.80;99.90;;;;;;4897201;29;20120;-56
2023/01/10 09:02:30;;;;;;;11.25;2.03;;;7.80;99.90;;;;;;4897143;29;20031;-50
2023/01/10 09:04:55;;;;;;;7.68;2.03;;;7.80;99.90;;;;;;4915390;29;20036;-47
2023/01/10 09:07:21;;;;;;;11.02;2.10;;;7.70;99.90;;;;;;4900027;29;20064;-50
2023/01/10 09:09:47;;;;;;;12.32;1.70;;;7.70;99.90;;;;;;4897184;29;20506;-48
2023/01/10 09:14:57;;;;;;;11.07;1.77;;;7.70;99.90;;;;;;4906213;29;20046;-49
2023/01/10 09:17:22;;;;;;;10.63;1.20;;;7.70;99.90;;;;;;4915663;29;20024;-52
2023/01/10 09:19:48;;;;;;;9.57;1.38;;;7.70;99.90;;;;;;4907284;29;20476;-46
2023/01/10 09:22:14;;;;;;;6.10;1.17;;;7.70;99.90;;;;;;4907581;29;20031;-47
2023/01/10 09:24:40;;;;;;;3.85;0.90;;;7.70;99.90;;;;;;4908593;29;20091;-49
2023/01/10 09:27:06;;;;;;;8.00;1.00;;;7.70;99.90;;;;;;4899318;29;20031;-48
2023/01/10 09:29:31;;;;;;;10.38;1.67;;;7.70;99.90;;;;;;4902507;29;20697;-51
2023/01/10 09:31:57;;;;;;;9.32;1.50;;;7.70;99.90;;;;;;4915435;29;20043;-45
2023/01/10 09:34:23;;;;;;;6.00;0.93;;;7.70;99.90;;;;;;4915231;29;20028;-53
2023/01/10 09:36:49;;;;;;;6.07;0.93;;;7.80;99.90;;;;;;4915615;29;20028;-48
2023/01/10 09:39:15;;;;;;;4.38;0.60;;;7.80;99.90;;;;;;4915243;29;20032;-49
2023/01/10 09:42:05;;;;;;;10.25;1.10;;;7.80;99.90;;;;;;4910816;29;20095;-47
2023/01/10 09:45:04;;;;;;;5.05;0.70;;;7.80;99.90;;;;;;4909977;29;20048;-50
2023/01/10 09:47:39;;;;;;;10.38;1.58;;;7.90;99.90;;;;;;4913345;29;20095;-51
2023/01/10 09:50:11;;;;;;;2.92;0.93;;;7.90;99.90;;;;;;4909534;29;20024;-49
2023/01/10 09:52:42;;;;;;;8.38;1.40;;;7.90;99.90;;;;;;4895619;29;20028;-44
2023/01/10 09:55:23;;;;;;;5.05;0.90;;;8.00;99.90;;;;;;4896228;29;20391;-49
2023/01/10 09:57:52;;;;;;;4.82;1.40;;;8.00;99.90;;;;;;4896558;29;20040;-47
2023/01/10 10:00:23;;;;;;;2.55;0.77;;;8.00;99.90;;;;;;4895926;29;20238;-44
2023/01/10 10:02:51;;;;;;;4.63;0.80;;;8.10;99.90;;;;;;4895927;29;20106;-49
2023/01/10 10:05:26;;;;;;;10.32;0.90;;;8.10;99.90;;;;;;4913668;29;20111;-50
2023/01/10 10:07:58;;;;;;;9.98;1.33;;;8.10;99.90;;;;;;4915028;29;20491;-45
2023/01/10 10:10:31;;;;;;;5.03;1.05;;;8.10;99.90;;;;;;4914738;29;20475;-45
2023/01/10 10:13:14;;;;;;;8.35;1.45;;;8.20;99.90;;;;;;4909553;29;20028;-46
2023/01/10 10:15:46;;;;;;;6.72;1.10;;;8.20;99.90;;;;;;4899554;29;20538;-48
2023/01/10 10:18:23;;;;;;;8.50;1.45;;;8.20;99.90;;;;;;4898499;29;20028;-50
2023/01/10 10:21:02;;;;;;;6.47;1.40;;;8.30;99.90;;;;;;4909363;29;20043;-46
2023/01/10 10:23:46;;;;;;;5.93;1.43;;;8.30;99.90;;;;;;4910560;29;20040;-48
2023/01/10 10:26:16;;;;;;;14.90;2.13;;;8.30;99.90;;;;;;4898864;29;20490;-46
2023/01/10 10:29:12;;;;;;;12.35;2.58;;;8.40;99.90;;;;;;4902104;29;20396;-48
2023/01/10 10:31:53;;;;;;;11.07;2.38;;;8.40;99.90;;;;;;4900293;29;20032;-52
2023/01/10 10:34:21;;;;;;;6.43;1.38;;;8.40;99.90;;;;;;4913635;29;20029;-48
2023/01/10 10:36:57;;;;;;;14.07;2.42;;;8.50;99.90;;;;;;4906961;29;20076;-47
2023/01/10 10:39:33;;;;;;;13.60;1.85;;;8.50;99.90;;;;;;4913304;29;20023;-45
2023/01/10 10:41:59;;;;;;;7.72;1.60;;;8.50;99.90;;;;;;4907447;29;20868;-44
2023/01/10 10:44:39;;;;;;;11.25;2.13;;;8.60;99.90;;;;;;4905387;29;20568;-43
2023/01/10 10:47:17;;;;;;;8.00;1.80;;;8.60;99.90;;;;;;4909795;29;20028;-43
2023/01/10 10:49:49;;;;;;;15.23;2.10;;;8.60;99.90;;;;;;4909297;29;20121;-45
2023/01/10 10:52:29;;;;;;;22.65;2.65;;;8.60;99.90;;;;;;4899704;29;20472;-51
2023/01/10 10:54:55;;;;;;;9.00;1.95;;;8.60;99.90;;;;;;4908943;29;20025;-48
2023/01/10 10:57:24;;;;;;;6.95;1.80;;;8.70;99.90;;;;;;4906181;29;20039;-48
2023/01/10 10:59:51;;;;;;;12.15;1.60;;;8.70;99.90;;;;;;4909108;29;20033;-50
2023/01/10 11:02:29;;;;;;;16.25;2.35;;;8.70;99.90;;;;;;4904403;29;20039;-48
2023/01/10 11:04:58;;;;;;;8.60;1.73;;;8.80;99.90;;;;;;4900534;29;20028;-45
2023/01/10 11:07:26;;;;;;;16.25;2.45;;;8.80;99.90;;;;;;4914223;29;20032;-45
2023/01/10 11:12:31;;;;;;;12.52;1.95;;;8.90;99.90;;;;;;4914554;29;20040;-52
2023/01/10 11:14:58;;;;;;;11.00;1.90;;;9.00;99.90;;;;;;4914219;29;20043;-50
2023/01/10 11:17:31;;;;;;;8.70;1.30;;;9.00;99.90;;;;;;4914325;29;20047;-44
2023/01/10 11:20:03;;;;;;;9.60;1.50;;;9.10;99.90;;;;;;4913960;29;20079;-46
2023/01/10 11:22:37;;;;;;;8.55;1.88;;;9.20;99.90;;;;;;4914114;29;20086;-49
2023/01/10 11:25:03;;;;;;;9.63;1.38;;;9.30;99.90;;;;;;4910629;29;20426;-44
2023/01/10 11:27:31;;;;;;;11.95;1.48;;;9.30;99.90;;;;;;4914509;29;20040;-54
2023/01/10 11:30:01;;;;;;;5.93;1.30;;;9.40;99.90;;;;;;4908387;29;20032;-51
2023/01/10 11:32:35;;;;;;;;;;;9.40;99.90;;;;;;4913436;29;20487;-48
2023/01/10 11:35:08;;;;;;;6.45;1.02;;;9.50;99.90;;;;;;4914034;29;19930;-46
2023/01/10 11:37:35;;;;;;;4.68;0.98;;;9.60;99.90;;;;;;4915596;29;20454;-45
2023/01/10 11:40:22;;;;;;;5.60;1.23;;;9.60;99.90;;;;;;4914753;29;20538;-54
2023/01/10 11:42:49;;;;;;;9.27;1.88;;;9.70;99.90;;;;;;4908982;29;20049;-48
2023/01/10 11:45:18;;;;;;;4.63;1.00;;;9.70;99.90;;;;;;4902405;29;20063;-45
2023/01/10 11:48:16;;;;;;;7.38;1.30;;;9.80;99.90;;;;;;4914084;29;20029;-45
2023/01/10 11:50:49;;;;;;;5.38;1.00;;;9.90;99.90;;;;;;4903938;29;20025;-50
2023/01/10 11:53:34;;;;;;;7.50;1.30;;;9.90;99.90;;;;;;4903719;29;20080;-47
2023/01/10 11:56:01;;;;;;;5.50;1.05;;;10.00;99.90;;;;;;4900560;29;20024;-47
2023/01/10 11:58:35;;;;;;;4.68;1.33;;;10.00;99.90;;;;;;4911001;29;20448;-49
2023/01/10 12:01:01;;;;;;;8.73;1.50;;;10.00;99.90;;;;;;4913843;29;20029;-47
2023/01/10 12:03:35;;;;;;;14.15;2.17;;;10.10;99.90;;;;;;4914148;29;20032;-54
2023/01/10 12:06:05;;;;;;;11.60;2.70;;;10.10;99.90;;;;;;4917071;29;20044;-52
2023/01/10 12:08:33;;;;;;;15.15;2.35;;;10.20;99.90;;;;;;4917005;29;20027;-49
2023/01/10 12:11:03;;;;;;;11.95;2.05;;;10.30;99.90;;;;;;4917023;29;20567;-48
2023/01/10 12:13:30;;;;;;;;;;;10.30;99.90;;;;;;4916949;29;20479;-55
2023/01/10 12:16:21;;;;;;;12.10;2.40;;;10.40;99.90;;;;;;4916707;29;19950;-48
2023/01/10 12:18:49;;;;;;;15.55;2.13;;;10.40;99.90;;;;;;4916598;29;20060;-49
2023/01/10 12:21:19;;;;;;;20.27;2.30;;;10.40;99.90;;;;;;4916680;29;20152;-49
2023/01/10 12:23:48;;;;;;;18.25;2.88;;;10.50;99.90;;;;;;4916201;29;20024;-49
2023/01/10 12:26:14;;;;;;;17.33;3.03;;;10.60;99.90;;;;;;4916628;29;20069;-46
2023/01/10 12:28:50;;;;;;;20.90;3.33;;;10.70;99.90;;;;;;4905572;29;20020;-54
2023/01/10 12:31:15;;;;;;;26.90;3.70;;;10.70;99.90;;;;;;4916239;29;20127;-48
2023/01/10 12:33:50;;;;;;;26.65;3.65;;;10.70;99.90;;;;;;4916636;29;20454;-48
2023/01/10 12:36:29;;;;;;;34.97;5.38;;;10.90;99.90;;;;;;4918506;29;20028;-48
2023/01/10 12:39:15;;;;;;;31.05;5.60;;;10.90;99.90;;;;;;4916102;29;20103;-47
2023/01/10 12:44:51;;;;;;;40.97;5.28;;;11.00;99.90;;;;;;4916065;29;20539;-50
2023/01/10 12:47:54;;;;;;;37.97;4.50;;;11.10;99.90;;;;;;4904288;29;20036;-45
2023/01/10 12:50:24;;;;;;;30.38;4.28;;;11.10;99.90;;;;;;4908468;29;20382;-53
2023/01/10 12:53:02;;;;;;;31.35;4.90;;;11.10;99.90;;;;;;4897176;29;20037;-52
2023/01/10 12:55:33;;;;;;;35.17;5.47;;;11.20;99.90;;;;;;4897841;29;20032;-44
2023/01/10 12:58:03;;;;;;;35.97;5.65;;;11.30;99.90;;;;;;4897245;29;20069;-53
2023/01/10 13:00:31;;;;;;;39.05;5.82;;;11.30;99.90;;;;;;4897453;29;20476;-47
2023/01/10 13:02:59;;;;;;;37.92;5.38;;;11.30;99.90;;;;;;4897493;29;20029;-51
2023/01/10 13:05:27;;;;;;;29.80;5.25;;;11.40;99.90;;;;;;4910267;29;20044;-45
2023/01/10 13:07:59;;;;;;;41.90;5.65;;;11.40;99.90;;;;;;4912590;29;20028;-47
2023/01/10 13:10:27;;;;;;;46.50;5.32;;;11.40;99.90;;;;;;4901968;29;20040;-48
2023/01/10 13:13:00;;;;;;;33.10;4.60;;;11.40;99.90;;;;;;4899068;29;20029;-46
2023/01/10 13:15:31;;;;;;;32.90;5.00;;;11.40;99.90;;;;;;4905593;29;20491;-48
2023/01/10 13:18:24;;;;;;;41.42;4.57;;;11.40;99.90;;;;;;4908658;29;20076;-49
2023/01/10 13:21:12;;;;;;;37.15;4.70;;;11.40;99.90;;;;;;4908875;29;20420;-48
2023/01/10 13:23:52;;;;;;;26.75;4.55;;;11.50;99.90;;;;;;4915536;29;20028;-46